createdAt,value
2022-10-01T00:02:04.947Z,4.51
2022-10-01T00:04:31.602Z,4.46
2022-10-01T00:07:00.379Z,4.42
2022-10-01T00:09:27.329Z,4.46
2022-10-01T00:11:53.986Z,4.51
2022-10-01T00:14:20.759Z,4.46
2022-10-01T00:16:47.474Z,4.37
2022-10-01T00:19:15.034Z,4.36
2022-10-01T00:21:41.912Z,4.38
2022-10-01T00:24:11.975Z,4.39
2022-10-01T00:26:38.984Z,4.37
2022-10-01T00:29:10.085Z,4.37
2022-10-01T00:31:37.063Z,4.32
2022-10-01T00:34:04.492Z,4.30
2022-10-01T00:36:32.347Z,4.36
2022-10-01T00:39:00.790Z,4.35
2022-10-01T00:41:33.080Z,4.33
2022-10-01T00:44:02.546Z,4.28
2022-10-01T00:46:41.819Z,4.33
2022-10-01T00:49:21.283Z,4.33
2022-10-01T00:51:51.345Z,4.37
2022-10-01T00:54:27.040Z,4.35
2022-10-01T00:56:55.564Z,4.33
2022-10-01T00:59:22.243Z,4.35
2022-10-01T01:01:49.202Z,4.36
2022-10-01T01:04:18.732Z,4.30
2022-10-01T01:06:53.803Z,4.24
2022-10-01T01:09:21.416Z,4.26
2022-10-01T01:12:06.681Z,4.26
2022-10-01T01:14:40.423Z,4.22
2022-10-01T01:17:13.021Z,4.22
2022-10-01T01:20:18.319Z,4.12
2022-10-01T01:22:48.398Z,4.09
2022-10-01T01:25:20.197Z,4.10
2022-10-01T01:28:05.128Z,4.13
2022-10-01T01:30:33.088Z,4.12
2022-10-01T01:33:09.488Z,4.12
2022-10-01T01:35:41.099Z,4.08
2022-10-01T01:38:11.458Z,4.11
2022-10-01T01:40:39.455Z,4.21
2022-10-01T01:43:10.205Z,4.13
2022-10-01T01:45:40.007Z,4.14
2022-10-01T01:48:09.158Z,4.19
2022-10-01T01:50:43.291Z,4.25
2022-10-01T01:53:10.123Z,4.28
2022-10-01T01:55:37.290Z,4.44
2022-10-01T01:58:04.010Z,4.31
2022-10-01T02:00:30.648Z,4.27
2022-10-01T02:02:58.124Z,4.33
2022-10-01T02:05:27.422Z,4.28
2022-10-01T02:08:02.016Z,4.28
2022-10-01T02:10:40.102Z,4.27
2022-10-01T02:13:22.202Z,4.25
2022-10-01T02:15:59.803Z,4.27
2022-10-01T02:18:39.738Z,4.27
2022-10-01T02:21:33.647Z,4.28
2022-10-01T02:24:26.658Z,4.34
2022-10-01T02:26:54.597Z,4.35
2022-10-01T02:29:22.258Z,4.35
2022-10-01T02:31:51.035Z,4.34
2022-10-01T02:34:23.855Z,4.34
2022-10-01T02:36:51.083Z,4.42
2022-10-01T02:39:22.072Z,4.53
2022-10-01T02:41:50.449Z,4.47
2022-10-01T02:44:21.226Z,4.48
2022-10-01T02:47:05.295Z,4.51
2022-10-01T02:49:32.163Z,4.56
2022-10-01T02:52:21.459Z,4.62
2022-10-01T02:55:00.496Z,4.60
2022-10-01T02:57:30.531Z,4.64
2022-10-01T02:59:59.956Z,4.65
2022-10-01T03:02:28.350Z,4.75
2022-10-01T03:04:57.243Z,4.67
2022-10-01T03:07:28.048Z,4.78
2022-10-01T03:09:54.778Z,4.82
2022-10-01T03:12:21.828Z,4.94
2022-10-01T03:14:48.493Z,4.90
2022-10-01T03:17:15.888Z,4.92
2022-10-01T03:19:42.970Z,4.95
2022-10-01T03:22:13.161Z,4.94
2022-10-01T03:24:39.760Z,5.11
2022-10-01T03:27:06.684Z,5.07
2022-10-01T03:29:33.426Z,5.10
2022-10-01T03:32:00.137Z,5.14
2022-10-01T03:34:26.811Z,5.55
2022-10-01T03:36:53.454Z,5.52
2022-10-01T03:39:20.078Z,5.53
2022-10-01T03:41:50.048Z,5.59
2022-10-01T03:44:16.655Z,5.63
2022-10-01T03:46:43.854Z,5.65
2022-10-01T03:49:13.707Z,5.68
2022-10-01T03:51:42.643Z,5.76
2022-10-01T03:54:09.667Z,5.75
2022-10-01T03:56:36.483Z,5.78
2022-10-01T03:59:03.402Z,5.80
2022-10-01T04:01:30.972Z,5.92
2022-10-01T04:03:57.879Z,5.89
2022-10-01T04:06:24.601Z,5.98
2022-10-01T04:08:51.353Z,5.97
2022-10-01T04:11:18.103Z,5.96
2022-10-01T04:13:45.128Z,5.94
2022-10-01T04:16:11.829Z,5.95
2022-10-01T04:18:38.715Z,5.95
2022-10-01T04:21:05.668Z,5.98
2022-10-01T04:23:32.410Z,6.02
2022-10-01T04:26:01.035Z,6.07
2022-10-01T04:28:28.365Z,6.13
2022-10-01T04:31:15.025Z,6.14
2022-10-01T04:33:41.819Z,6.15
2022-10-01T04:36:08.431Z,6.17
2022-10-01T04:38:35.112Z,6.26
2022-10-01T04:41:01.825Z,6.30
2022-10-01T04:43:28.441Z,6.33
2022-10-01T04:45:54.997Z,6.31
2022-10-01T04:48:21.622Z,6.34
2022-10-01T04:50:48.177Z,6.38
2022-10-01T04:53:14.779Z,6.35
2022-10-01T04:55:42.492Z,6.51
2022-10-01T04:58:09.274Z,6.54
2022-10-01T05:00:36.245Z,6.40
2022-10-01T05:03:02.884Z,6.49
2022-10-01T05:05:32.932Z,6.49
2022-10-01T05:07:59.631Z,6.53
2022-10-01T05:10:26.303Z,6.47
2022-10-01T05:12:52.996Z,6.51
2022-10-01T05:15:19.744Z,6.49
2022-10-01T05:17:46.690Z,6.53
2022-10-01T05:20:21.507Z,6.54
2022-10-01T05:22:49.463Z,6.63
2022-10-01T05:25:16.833Z,6.59
2022-10-01T05:27:43.695Z,6.65
2022-10-01T05:30:12.143Z,6.62
2022-10-01T05:32:38.921Z,6.67
2022-10-01T05:35:07.266Z,6.76
2022-10-01T05:37:34.429Z,6.83
2022-10-01T05:40:01.713Z,6.79
2022-10-01T05:42:28.334Z,6.68
2022-10-01T05:44:56.168Z,6.73
2022-10-01T05:47:23.232Z,6.80
2022-10-01T05:49:49.894Z,6.82
2022-10-01T05:52:16.945Z,6.90
2022-10-01T05:54:43.632Z,6.88
2022-10-01T05:57:10.644Z,6.91
2022-10-01T05:59:37.399Z,6.83
2022-10-01T06:02:04.350Z,6.85
2022-10-01T06:04:31.482Z,6.88
2022-10-01T06:06:58.268Z,6.88
2022-10-01T06:09:25.270Z,6.94
2022-10-01T06:11:51.879Z,7.05
2022-10-01T06:14:18.957Z,7.09
2022-10-01T06:16:46.968Z,7.22
2022-10-01T06:19:13.717Z,7.38
2022-10-01T06:21:40.368Z,7.48
2022-10-01T06:24:07.109Z,7.49
2022-10-01T06:26:33.837Z,7.53
2022-10-01T06:29:00.462Z,7.69
2022-10-01T06:31:27.626Z,7.71
2022-10-01T06:33:54.294Z,7.74
2022-10-01T06:36:20.878Z,7.91
2022-10-01T06:38:50.584Z,7.95
2022-10-01T06:41:17.251Z,8.07
2022-10-01T06:43:43.951Z,8.00
2022-10-01T06:46:11.177Z,8.03
2022-10-01T06:48:37.938Z,8.15
2022-10-01T06:51:04.711Z,8.17
2022-10-01T06:53:31.910Z,8.22
2022-10-01T06:56:06.966Z,8.22
2022-10-01T06:58:33.847Z,8.27
2022-10-01T07:01:02.175Z,8.27
2022-10-01T07:03:29.200Z,8.35
2022-10-01T07:06:03.963Z,8.58
2022-10-01T07:08:30.673Z,8.54
2022-10-01T07:11:02.771Z,8.52
2022-10-01T07:13:29.920Z,8.66
2022-10-01T07:15:56.732Z,8.66
2022-10-01T07:18:23.643Z,8.63
2022-10-01T07:20:50.285Z,8.68
2022-10-01T07:23:17.311Z,8.68
2022-10-01T07:25:44.256Z,8.72
2022-10-01T07:28:16.843Z,8.82
2022-10-01T07:30:56.713Z,8.81
2022-10-01T07:33:23.485Z,8.97
2022-10-01T07:35:50.230Z,8.87
2022-10-01T07:38:16.923Z,8.94
2022-10-01T07:40:43.607Z,8.99
2022-10-01T07:43:10.268Z,9.01
2022-10-01T07:45:37.076Z,9.08
2022-10-01T07:48:04.267Z,9.10
2022-10-01T07:50:30.979Z,9.23
2022-10-01T07:52:58.597Z,9.17
2022-10-01T07:55:27.008Z,9.25
2022-10-01T07:57:55.160Z,9.35
2022-10-01T08:00:22.857Z,9.45
2022-10-01T08:02:50.779Z,9.58
2022-10-01T08:05:22.509Z,9.63
2022-10-01T08:07:50.160Z,9.83
2022-10-01T08:10:18.977Z,9.86
2022-10-01T08:12:45.946Z,9.96
2022-10-01T08:15:14.698Z,10.06
2022-10-01T08:17:41.839Z,10.13
2022-10-01T08:20:11.181Z,10.19
2022-10-01T08:22:41.823Z,10.26
2022-10-01T08:25:09.073Z,10.31
2022-10-01T08:27:36.053Z,10.37
2022-10-01T08:30:02.974Z,10.54
2022-10-01T08:32:31.163Z,10.60
2022-10-01T08:34:59.120Z,10.72
2022-10-01T08:37:27.181Z,10.81
2022-10-01T08:39:54.767Z,10.90
2022-10-01T08:42:34.914Z,11.00
2022-10-01T08:45:06.061Z,11.04
2022-10-01T08:47:36.138Z,11.06
2022-10-01T08:50:12.505Z,11.16
2022-10-01T08:52:50.240Z,11.21
2022-10-01T08:55:21.077Z,11.26
2022-10-01T08:57:59.670Z,11.28
2022-10-01T09:00:27.514Z,11.36
2022-10-01T09:02:54.241Z,11.38
2022-10-01T09:05:42.942Z,11.63
2022-10-01T09:08:43.879Z,11.65
2022-10-01T09:11:29.489Z,11.87
2022-10-01T09:14:24.936Z,11.94
2022-10-01T09:16:59.912Z,11.91
2022-10-01T09:19:57.709Z,12.10
2022-10-01T09:22:32.115Z,12.10
2022-10-01T09:25:10.795Z,12.23
2022-10-01T09:27:40.359Z,12.39
2022-10-01T09:30:23.804Z,12.45
2022-10-01T09:33:02.928Z,12.50
2022-10-01T09:35:41.779Z,12.50
2022-10-01T09:38:13.930Z,12.48
2022-10-01T09:40:46.752Z,12.53
2022-10-01T09:43:14.165Z,12.56
2022-10-01T09:45:41.120Z,12.59
2022-10-01T09:48:18.589Z,12.62
2022-10-01T09:50:55.343Z,12.67
2022-10-01T09:53:26.529Z,12.66
2022-10-01T09:55:56.565Z,12.61
2022-10-01T09:58:24.957Z,12.63
2022-10-01T10:00:53.612Z,12.60
2022-10-01T10:03:30.711Z,12.66
2022-10-01T10:05:59.869Z,12.67
2022-10-01T10:08:30.666Z,12.66
2022-10-01T10:11:06.639Z,12.64
2022-10-01T10:13:35.377Z,12.62
2022-10-01T10:16:27.822Z,12.57
2022-10-01T10:18:58.754Z,12.49
2022-10-01T10:21:27.968Z,12.44
2022-10-01T10:23:57.238Z,12.38
2022-10-01T10:26:34.562Z,12.23
2022-10-01T10:29:03.581Z,12.20
2022-10-01T10:31:38.507Z,12.17
2022-10-01T10:34:16.620Z,12.02
2022-10-01T10:36:44.456Z,11.95
2022-10-01T10:39:23.809Z,11.95
2022-10-01T10:41:52.061Z,11.92
2022-10-01T10:44:21.427Z,11.79
2022-10-01T10:46:49.195Z,11.76
2022-10-01T10:49:23.883Z,11.64
2022-10-01T10:51:55.490Z,11.59
2022-10-01T10:54:25.344Z,11.54
2022-10-01T10:57:03.507Z,11.57
2022-10-01T10:59:32.185Z,11.49
2022-10-01T11:02:00.718Z,11.49
2022-10-01T11:04:32.854Z,11.49
2022-10-01T11:07:03.052Z,11.48
2022-10-01T11:09:55.539Z,11.41
2022-10-01T11:12:38.462Z,11.43
2022-10-01T11:15:15.222Z,11.36
2022-10-01T11:18:10.722Z,11.34
2022-10-01T11:21:00.203Z,11.31
2022-10-01T11:23:37.629Z,11.30
2022-10-01T11:26:31.074Z,11.18
2022-10-01T11:29:20.728Z,11.12
2022-10-01T11:31:55.033Z,11.08
2022-10-01T11:34:41.966Z,11.02
2022-10-01T11:37:28.488Z,10.98
2022-10-01T11:39:56.629Z,10.97
2022-10-01T11:42:31.772Z,10.91
2022-10-01T11:45:07.262Z,10.89
2022-10-01T11:47:38.089Z,10.91
2022-10-01T11:50:20.753Z,10.92
2022-10-01T11:53:00.450Z,10.83
2022-10-01T11:56:00.100Z,10.88
2022-10-01T11:58:55.612Z,10.81
2022-10-01T12:01:50.538Z,10.82
2022-10-01T12:04:25.580Z,10.87
2022-10-01T12:06:58.066Z,10.86
2022-10-01T12:09:31.419Z,10.83
2022-10-01T12:12:06.810Z,10.77
2022-10-01T12:14:42.652Z,10.81
2022-10-01T12:17:15.618Z,10.82
2022-10-01T12:19:47.007Z,10.71
2022-10-01T12:22:27.274Z,10.68
2022-10-01T12:24:54.321Z,10.66
2022-10-01T12:27:33.433Z,10.67
2022-10-01T12:30:22.233Z,10.70
2022-10-01T12:33:10.730Z,10.64
2022-10-01T12:35:53.087Z,10.64
2022-10-01T12:38:45.505Z,10.58
2022-10-01T12:41:38.759Z,10.60
2022-10-01T12:44:52.519Z,10.62
2022-10-01T12:47:35.200Z,10.55
2022-10-01T12:50:17.106Z,10.58
2022-10-01T12:53:14.527Z,10.58
2022-10-01T12:55:47.591Z,10.61
2022-10-01T12:58:44.880Z,10.66
2022-10-01T13:01:26.565Z,10.65
2022-10-01T13:04:31.264Z,10.55
2022-10-01T13:07:09.059Z,10.53
2022-10-01T13:09:52.288Z,10.53
2022-10-01T13:12:57.983Z,10.58
2022-10-01T13:15:34.538Z,10.56
2022-10-01T13:18:21.350Z,10.62
2022-10-01T13:21:08.559Z,10.63
2022-10-01T13:23:41.631Z,10.63
2022-10-01T13:26:17.458Z,10.62
2022-10-01T13:28:52.808Z,10.70
2022-10-01T13:31:19.563Z,10.76
2022-10-01T13:33:57.110Z,10.71
2022-10-01T13:36:35.622Z,10.79
2022-10-01T13:39:03.148Z,10.77
2022-10-01T13:41:34.542Z,10.77
2022-10-01T13:44:21.306Z,10.68
2022-10-01T13:46:53.704Z,10.70
2022-10-01T13:49:30.100Z,10.73
2022-10-01T13:51:57.675Z,10.79
2022-10-01T13:55:00.946Z,10.68
2022-10-01T13:57:34.316Z,10.89
2022-10-01T14:00:12.590Z,10.82
2022-10-01T14:02:42.266Z,10.84
2022-10-01T14:05:18.126Z,10.86
2022-10-01T14:07:46.547Z,10.81
2022-10-01T14:10:15.002Z,10.82
2022-10-01T14:13:02.282Z,10.74
2022-10-01T14:15:58.382Z,10.86
2022-10-01T14:18:39.638Z,10.90
2022-10-01T14:21:29.427Z,10.85
2022-10-01T14:24:25.476Z,10.81
2022-10-01T14:27:11.578Z,10.91
2022-10-01T14:30:03.495Z,10.92
2022-10-01T14:32:54.508Z,10.90
2022-10-01T14:35:52.115Z,10.91
2022-10-01T14:38:19.978Z,10.91
2022-10-01T14:40:48.596Z,10.79
2022-10-01T14:43:24.030Z,10.85
2022-10-01T14:45:59.111Z,10.87
2022-10-01T14:48:27.588Z,11.00
2022-10-01T14:50:56.611Z,11.02
2022-10-01T14:53:26.165Z,10.92
2022-10-01T14:55:55.446Z,11.10
2022-10-01T14:58:32.104Z,11.11
2022-10-01T15:00:59.354Z,11.08
2022-10-01T15:03:26.055Z,10.98
2022-10-01T15:06:03.807Z,11.09
2022-10-01T15:08:42.184Z,11.09
2022-10-01T15:11:14.002Z,11.04
2022-10-01T15:13:44.247Z,11.08
2022-10-01T15:16:13.013Z,11.17
2022-10-01T15:18:43.025Z,11.31
2022-10-01T15:21:19.187Z,11.35
2022-10-01T15:23:46.671Z,11.32
2022-10-01T15:26:18.029Z,11.32
2022-10-01T15:28:44.683Z,11.32
2022-10-01T15:31:11.488Z,11.32
2022-10-01T15:33:43.124Z,11.20
2022-10-01T15:36:15.750Z,11.10
2022-10-01T15:38:44.483Z,11.05
2022-10-01T15:41:31.558Z,11.10
2022-10-01T15:44:03.893Z,11.11
2022-10-01T15:46:33.169Z,11.04
2022-10-01T15:49:17.295Z,11.11
2022-10-01T15:52:18.063Z,11.14
2022-10-01T15:54:45.863Z,11.00
2022-10-01T15:57:22.055Z,10.95
2022-10-01T15:59:50.994Z,10.87
2022-10-01T16:02:24.422Z,10.83
2022-10-01T16:04:56.658Z,10.82
2022-10-01T16:07:29.051Z,10.71
2022-10-01T16:10:00.735Z,10.78
2022-10-01T16:12:28.126Z,10.69
2022-10-01T16:15:03.443Z,10.71
2022-10-01T16:17:33.026Z,10.71
2022-10-01T16:20:14.954Z,10.63
2022-10-01T16:22:43.170Z,10.53
2022-10-01T16:25:23.742Z,10.47
2022-10-01T16:27:55.636Z,10.39
2022-10-01T16:30:27.434Z,10.37
2022-10-01T16:32:54.859Z,10.34
2022-10-01T16:35:23.984Z,10.36
2022-10-01T16:37:52.947Z,10.28
2022-10-01T16:40:24.491Z,10.29
2022-10-01T16:42:51.500Z,10.20
2022-10-01T16:45:20.579Z,10.11
2022-10-01T16:47:47.282Z,10.02
2022-10-01T16:50:17.008Z,10.00
2022-10-01T16:52:43.762Z,9.98
2022-10-01T16:55:20.368Z,9.98
2022-10-01T16:57:46.950Z,10.03
2022-10-01T17:00:15.515Z,10.02
2022-10-01T17:02:42.627Z,9.99
2022-10-01T17:05:32.058Z,10.01
2022-10-01T17:08:03.450Z,9.96
2022-10-01T17:10:32.234Z,9.93
2022-10-01T17:12:59.699Z,9.90
2022-10-01T17:15:27.398Z,9.87
2022-10-01T17:17:55.001Z,9.86
2022-10-01T17:20:22.168Z,9.83
2022-10-01T17:22:49.546Z,9.81
2022-10-01T17:25:19.626Z,9.82
2022-10-01T17:27:46.964Z,9.80
2022-10-01T17:30:14.502Z,9.81
2022-10-01T17:32:42.912Z,9.79
2022-10-01T17:35:14.200Z,9.80
2022-10-01T17:37:41.285Z,9.84
2022-10-01T17:40:09.277Z,9.86
2022-10-01T17:42:36.424Z,9.93
2022-10-01T17:45:05.966Z,9.97
2022-10-01T17:47:33.539Z,10.13
2022-10-01T17:50:00.578Z,10.13
2022-10-01T17:52:29.151Z,10.31
2022-10-01T17:54:55.959Z,10.48
2022-10-01T17:57:22.619Z,10.69
2022-10-01T17:59:52.331Z,10.82
2022-10-01T18:02:40.476Z,10.90
2022-10-01T18:05:09.381Z,10.86
2022-10-01T18:07:37.955Z,10.85
2022-10-01T18:10:06.703Z,10.87
2022-10-01T18:12:33.855Z,10.89
2022-10-01T18:15:01.212Z,10.82
2022-10-01T18:17:28.115Z,10.79
2022-10-01T18:19:55.430Z,10.63
2022-10-01T18:22:23.174Z,10.67
2022-10-01T18:24:53.230Z,10.65
2022-10-01T18:27:21.005Z,10.55
2022-10-01T18:29:47.608Z,10.53
2022-10-01T18:32:21.877Z,10.48
2022-10-01T18:35:07.600Z,10.43
2022-10-01T18:37:49.505Z,10.47
2022-10-01T18:40:32.999Z,10.39
2022-10-01T18:43:14.649Z,10.36
2022-10-01T18:46:15.527Z,10.33
2022-10-01T18:49:06.959Z,10.29
2022-10-01T18:51:56.728Z,10.31
2022-10-01T18:54:55.899Z,10.22
2022-10-01T18:57:30.253Z,10.25
2022-10-01T19:00:23.538Z,10.23
2022-10-01T19:03:09.003Z,10.20
2022-10-01T19:05:35.957Z,10.15
2022-10-01T19:08:09.255Z,10.14
2022-10-01T19:10:41.904Z,10.09
2022-10-01T19:13:20.773Z,10.10
2022-10-01T19:16:18.773Z,10.05
2022-10-01T19:18:56.968Z,10.03
2022-10-01T19:21:51.536Z,10.12
2022-10-01T19:24:22.058Z,10.11
2022-10-01T19:27:24.853Z,10.14
2022-10-01T19:30:01.139Z,10.15
2022-10-01T19:32:49.613Z,10.27
2022-10-01T19:35:22.599Z,10.22
2022-10-01T19:37:52.865Z,10.22
2022-10-01T19:41:00.112Z,10.29
2022-10-01T19:43:33.555Z,10.36
2022-10-01T19:46:10.644Z,10.55
2022-10-01T19:48:52.537Z,10.54
2022-10-01T19:51:22.610Z,10.51
2022-10-01T19:53:52.724Z,10.50
2022-10-01T19:56:24.522Z,10.61
2022-10-01T19:58:52.291Z,10.70
2022-10-01T20:01:21.406Z,10.61
2022-10-01T20:03:59.531Z,10.60
2022-10-01T20:06:32.891Z,10.62
2022-10-01T20:09:16.302Z,10.64
2022-10-01T20:11:57.295Z,10.72
2022-10-01T20:15:07.836Z,10.83
2022-10-01T20:17:55.673Z,10.88
2022-10-01T20:20:29.756Z,10.90
2022-10-01T20:23:26.512Z,10.88
2022-10-01T20:25:59.008Z,10.87
2022-10-01T20:28:52.322Z,11.04
2022-10-01T20:31:28.375Z,10.97
2022-10-01T20:34:01.978Z,10.99
2022-10-01T20:36:34.756Z,11.01
2022-10-01T20:39:13.883Z,10.94
2022-10-01T20:41:47.205Z,10.92
2022-10-01T20:44:36.126Z,11.06
2022-10-01T20:47:36.666Z,10.98
2022-10-01T20:50:12.846Z,11.06
2022-10-01T20:53:04.140Z,11.01
2022-10-01T20:55:38.961Z,11.20
2022-10-01T20:58:11.441Z,11.14
2022-10-01T21:00:39.123Z,11.10
2022-10-01T21:03:21.443Z,11.05
2022-10-01T21:06:01.535Z,11.05
2022-10-01T21:08:37.389Z,11.05
2022-10-01T21:11:12.055Z,11.11
2022-10-01T21:13:56.888Z,11.11
2022-10-01T21:16:42.921Z,11.03
2022-10-01T21:19:34.948Z,11.00
2022-10-01T21:22:26.250Z,11.11
2022-10-01T21:25:02.136Z,11.09
2022-10-01T21:27:47.544Z,11.02
2022-10-01T21:30:16.846Z,11.09
2022-10-01T21:33:02.663Z,11.08
2022-10-01T21:35:50.789Z,11.14
2022-10-01T21:38:30.890Z,11.07
2022-10-01T21:41:13.735Z,11.12
2022-10-01T21:43:59.268Z,11.08
2022-10-01T21:46:37.723Z,11.13
2022-10-01T21:49:17.529Z,11.12
2022-10-01T21:52:18.389Z,11.12
2022-10-01T21:54:57.416Z,11.17
2022-10-01T21:57:27.971Z,11.13
2022-10-01T22:00:19.202Z,11.09
2022-10-01T22:03:05.087Z,11.15
2022-10-01T22:05:54.747Z,11.13
2022-10-01T22:08:41.686Z,11.12
2022-10-01T22:11:12.655Z,11.11
2022-10-01T22:13:54.520Z,11.16
2022-10-01T22:16:22.164Z,11.02
2022-10-01T22:19:04.158Z,11.08
2022-10-01T22:21:45.562Z,11.13
2022-10-01T22:24:21.293Z,11.12
2022-10-01T22:26:53.853Z,11.13
2022-10-01T22:29:24.558Z,11.08
2022-10-01T22:31:54.593Z,11.07
2022-10-01T22:34:28.168Z,11.17
2022-10-01T22:37:05.302Z,11.16
2022-10-01T22:39:35.776Z,11.14
2022-10-01T22:42:11.158Z,11.14
2022-10-01T22:44:37.780Z,11.17
2022-10-01T22:47:26.814Z,11.17
2022-10-01T22:50:08.875Z,11.17
2022-10-01T22:52:54.027Z,11.22
2022-10-01T22:55:36.278Z,11.15
2022-10-01T22:58:18.171Z,11.15
2022-10-01T23:00:53.652Z,11.13
2022-10-01T23:03:39.612Z,11.29
2022-10-01T23:06:19.579Z,11.23
2022-10-01T23:09:04.079Z,11.26
2022-10-01T23:11:45.856Z,11.23
2022-10-01T23:14:18.894Z,11.22
2022-10-01T23:17:15.573Z,11.27
2022-10-01T23:19:57.945Z,11.20
2022-10-01T23:22:46.593Z,11.32
2022-10-01T23:25:26.686Z,11.24
2022-10-01T23:28:23.507Z,11.28
2022-10-01T23:31:15.921Z,11.24
2022-10-01T23:33:51.135Z,11.18
2022-10-01T23:36:50.315Z,11.11
2022-10-01T23:39:45.699Z,11.08
2022-10-01T23:42:35.367Z,11.04
2022-10-01T23:45:13.860Z,11.15
2022-10-01T23:47:56.926Z,11.18
2022-10-01T23:50:31.707Z,11.11
2022-10-01T23:53:07.965Z,11.22
2022-10-01T23:56:08.724Z,11.15
2022-10-01T23:58:42.338Z,11.09
